sensor_id;sensor_type;location;lat;lon;timestamp;P1;durP1;ratioP1;P2;durP2;ratioP2
817;SDS011;391;51.052;6.954;2023-07-16T00:01:44;2.07;;;1.87;;
817;SDS011;391;51.052;6.954;2023-07-16T00:03:48;2.33;;;2.13;;
817;SDS011;391;51.052;6.954;2023-07-16T00:05:51;2.60;;;2.20;;
817;SDS011;391;51.052;6.954;2023-07-16T00:07:55;2.60;;;2.40;;
817;SDS011;391;51.052;6.954;2023-07-16T00:09:58;2.40;;;1.80;;
817;SDS011;391;51.052;6.954;2023-07-16T00:12:01;2.30;;;2.10;;
817;SDS011;391;51.052;6.954;2023-07-16T00:14:06;2.27;;;1.80;;
817;SDS011;391;51.052;6.954;2023-07-16T00:16:08;2.60;;;2.40;;
817;SDS011;391;51.052;6.954;2023-07-16T00:18:11;2.63;;;2.23;;
817;SDS011;391;51.052;6.954;2023-07-16T00:20:15;4.60;;;2.10;;
817;SDS011;391;51.052;6.954;2023-07-16T00:22:18;2.10;;;1.60;;
817;SDS011;391;51.052;6.954;2023-07-16T00:24:21;2.57;;;2.10;;
817;SDS011;391;51.052;6.954;2023-07-16T00:26:25;2.30;;;2.10;;
817;SDS011;391;51.052;6.954;2023-07-16T00:28:29;3.97;;;2.30;;
817;SDS011;391;51.052;6.954;2023-07-16T00:30:33;5.13;;;2.17;;
817;SDS011;391;51.052;6.954;2023-07-16T00:32:36;2.40;;;1.80;;
817;SDS011;391;51.052;6.954;2023-07-16T00:34:39;2.23;;;1.80;;
817;SDS011;391;51.052;6.954;2023-07-16T00:36:43;2.63;;;2.00;;
817;SDS011;391;51.052;6.954;2023-07-16T00:38:46;2.67;;;2.20;;
817;SDS011;391;51.052;6.954;2023-07-16T00:40:50;4.73;;;2.00;;
817;SDS011;391;51.052;6.954;2023-07-16T00:42:53;2.50;;;2.17;;
817;SDS011;391;51.052;6.954;2023-07-16T00:44:57;3.43;;;1.87;;
817;SDS011;391;51.052;6.954;2023-07-16T00:47:00;1.97;;;1.83;;
817;SDS011;391;51.052;6.954;2023-07-16T00:49:05;2.50;;;2.20;;
817;SDS011;391;51.052;6.954;2023-07-16T00:51:08;2.87;;;1.80;;
817;SDS011;391;51.052;6.954;2023-07-16T00:53:12;2.73;;;1.90;;
817;SDS011;391;51.052;6.954;2023-07-16T00:55:16;1.63;;;1.50;;
817;SDS011;391;51.052;6.954;2023-07-16T00:57:18;2.70;;;2.07;;
817;SDS011;391;51.052;6.954;2023-07-16T00:59:21;4.53;;;2.00;;
817;SDS011;391;51.052;6.954;2023-07-16T01:01:25;5.60;;;2.87;;
817;SDS011;391;51.052;6.954;2023-07-16T01:03:30;3.80;;;1.87;;
817;SDS011;391;51.052;6.954;2023-07-16T01:05:34;3.03;;;1.97;;
817;SDS011;391;51.052;6.954;2023-07-16T01:07:54;4.77;;;1.83;;
817;SDS011;391;51.052;6.954;2023-07-16T01:10:04;3.33;;;1.87;;
817;SDS011;391;51.052;6.954;2023-07-16T01:12:08;4.17;;;2.37;;
817;SDS011;391;51.052;6.954;2023-07-16T01:14:12;2.10;;;1.87;;
817;SDS011;391;51.052;6.954;2023-07-16T01:16:20;2.90;;;2.20;;
817;SDS011;391;51.052;6.954;2023-07-16T01:18:24;3.50;;;2.00;;
817;SDS011;391;51.052;6.954;2023-07-16T01:20:29;3.00;;;1.67;;
817;SDS011;391;51.052;6.954;2023-07-16T01:22:42;4.37;;;1.83;;
817;SDS011;391;51.052;6.954;2023-07-16T01:25:10;3.80;;;2.20;;
817;SDS011;391;51.052;6.954;2023-07-16T01:27:34;3.23;;;2.17;;
817;SDS011;391;51.052;6.954;2023-07-16T01:29:54;2.90;;;1.93;;
817;SDS011;391;51.052;6.954;2023-07-16T01:32:02;1.80;;;1.70;;
817;SDS011;391;51.052;6.954;2023-07-16T01:34:10;3.60;;;1.60;;
817;SDS011;391;51.052;6.954;2023-07-16T01:36:13;2.90;;;1.67;;
817;SDS011;391;51.052;6.954;2023-07-16T01:38:18;7.20;;;2.50;;
817;SDS011;391;51.052;6.954;2023-07-16T01:40:23;1.90;;;1.70;;
817;SDS011;391;51.052;6.954;2023-07-16T01:42:26;2.13;;;1.83;;
817;SDS011;391;51.052;6.954;2023-07-16T01:44:29;3.13;;;1.47;;
817;SDS011;391;51.052;6.954;2023-07-16T01:46:33;3.00;;;2.00;;
817;SDS011;391;51.052;6.954;2023-07-16T01:48:37;2.67;;;2.10;;
817;SDS011;391;51.052;6.954;2023-07-16T01:50:41;4.80;;;2.47;;
817;SDS011;391;51.052;6.954;2023-07-16T01:52:45;5.30;;;2.20;;
817;SDS011;391;51.052;6.954;2023-07-16T01:54:48;1.80;;;1.40;;
817;SDS011;391;51.052;6.954;2023-07-16T01:56:56;3.17;;;1.90;;
817;SDS011;391;51.052;6.954;2023-07-16T01:58:59;3.67;;;1.77;;
817;SDS011;391;51.052;6.954;2023-07-16T02:01:03;1.83;;;1.47;;
817;SDS011;391;51.052;6.954;2023-07-16T02:03:09;4.13;;;2.10;;
817;SDS011;391;51.052;6.954;2023-07-16T02:05:13;3.93;;;2.37;;
817;SDS011;391;51.052;6.954;2023-07-16T02:07:17;4.30;;;2.53;;
817;SDS011;391;51.052;6.954;2023-07-16T02:09:21;10.87;;;9.83;;
817;SDS011;391;51.052;6.954;2023-07-16T02:11:24;3.63;;;2.40;;
817;SDS011;391;51.052;6.954;2023-07-16T02:13:28;2.17;;;1.60;;
817;SDS011;391;51.052;6.954;2023-07-16T02:15:31;3.60;;;1.80;;
817;SDS011;391;51.052;6.954;2023-07-16T02:17:35;3.37;;;1.90;;
817;SDS011;391;51.052;6.954;2023-07-16T02:19:40;3.07;;;1.70;;
817;SDS011;391;51.052;6.954;2023-07-16T02:21:44;2.70;;;1.83;;
817;SDS011;391;51.052;6.954;2023-07-16T02:23:48;2.10;;;1.60;;
817;SDS011;391;51.052;6.954;2023-07-16T02:25:52;3.90;;;1.83;;
817;SDS011;391;51.052;6.954;2023-07-16T02:27:56;4.00;;;2.40;;
817;SDS011;391;51.052;6.954;2023-07-16T02:29:59;2.33;;;1.80;;
817;SDS011;391;51.052;6.954;2023-07-16T02:32:01;3.67;;;2.00;;
817;SDS011;391;51.052;6.954;2023-07-16T02:34:05;3.93;;;1.67;;
817;SDS011;391;51.052;6.954;2023-07-16T02:36:10;3.03;;;2.10;;
817;SDS011;391;51.052;6.954;2023-07-16T02:38:14;3.80;;;1.77;;
817;SDS011;391;51.052;6.954;2023-07-16T02:40:16;1.77;;;1.57;;
817;SDS011;391;51.052;6.954;2023-07-16T02:42:19;2.03;;;1.60;;
817;SDS011;391;51.052;6.954;2023-07-16T02:44:22;4.70;;;2.30;;
817;SDS011;391;51.052;6.954;2023-07-16T02:46:25;4.30;;;2.10;;
817;SDS011;391;51.052;6.954;2023-07-16T02:48:29;2.93;;;2.00;;
817;SDS011;391;51.052;6.954;2023-07-16T02:50:33;2.43;;;2.00;;
817;SDS011;391;51.052;6.954;2023-07-16T02:52:38;2.00;;;1.80;;
817;SDS011;391;51.052;6.954;2023-07-16T02:54:42;2.40;;;1.50;;
817;SDS011;391;51.052;6.954;2023-07-16T02:56:45;3.77;;;1.87;;
817;SDS011;391;51.052;6.954;2023-07-16T02:58:48;7.60;;;1.50;;
817;SDS011;391;51.052;6.954;2023-07-16T03:00:52;2.97;;;2.10;;
817;SDS011;391;51.052;6.954;2023-07-16T03:02:55;4.77;;;1.90;;
817;SDS011;391;51.052;6.954;2023-07-16T03:05:01;5.30;;;1.83;;
817;SDS011;391;51.052;6.954;2023-07-16T03:07:05;3.10;;;1.57;;
817;SDS011;391;51.052;6.954;2023-07-16T03:09:10;3.13;;;2.00;;
817;SDS011;391;51.052;6.954;2023-07-16T03:11:13;2.17;;;1.40;;
817;SDS011;391;51.052;6.954;2023-07-16T03:13:17;3.43;;;1.80;;
817;SDS011;391;51.052;6.954;2023-07-16T03:15:21;5.03;;;2.20;;
817;SDS011;391;51.052;6.954;2023-07-16T03:17:24;4.17;;;2.30;;
817;SDS011;391;51.052;6.954;2023-07-16T03:19:28;2.20;;;1.97;;
817;SDS011;391;51.052;6.954;2023-07-16T03:21:31;4.30;;;1.83;;
817;SDS011;391;51.052;6.954;2023-07-16T03:23:35;2.70;;;1.80;;
817;SDS011;391;51.052;6.954;2023-07-16T03:25:39;3.03;;;1.80;;
817;SDS011;391;51.052;6.954;2023-07-16T03:27:43;6.17;;;2.70;;
817;SDS011;391;51.052;6.954;2023-07-16T03:29:46;6.97;;;2.10;;
817;SDS011;391;51.052;6.954;2023-07-16T03:31:52;5.20;;;2.00;;
817;SDS011;391;51.052;6.954;2023-07-16T03:33:57;4.33;;;2.00;;
817;SDS011;391;51.052;6.954;2023-07-16T03:36:04;4.23;;;1.57;;
817;SDS011;391;51.052;6.954;2023-07-16T03:38:07;3.83;;;1.90;;
817;SDS011;391;51.052;6.954;2023-07-16T03:40:12;2.67;;;2.10;;
817;SDS011;391;51.052;6.954;2023-07-16T03:42:20;4.20;;;2.17;;
817;SDS011;391;51.052;6.954;2023-07-16T03:44:25;3.53;;;1.83;;
817;SDS011;391;51.052;6.954;2023-07-16T03:46:28;4.67;;;2.40;;
817;SDS011;391;51.052;6.954;2023-07-16T03:48:32;4.80;;;2.33;;
817;SDS011;391;51.052;6.954;2023-07-16T03:50:35;2.07;;;1.60;;
817;SDS011;391;51.052;6.954;2023-07-16T03:52:39;4.67;;;2.20;;
817;SDS011;391;51.052;6.954;2023-07-16T03:54:42;4.90;;;1.87;;
817;SDS011;391;51.052;6.954;2023-07-16T03:56:45;3.57;;;2.00;;
817;SDS011;391;51.052;6.954;2023-07-16T03:58:50;3.50;;;2.80;;
817;SDS011;391;51.052;6.954;2023-07-16T04:00:54;5.73;;;2.40;;
817;SDS011;391;51.052;6.954;2023-07-16T04:02:58;2.70;;;2.10;;
817;SDS011;391;51.052;6.954;2023-07-16T04:05:02;3.37;;;1.50;;
817;SDS011;391;51.052;6.954;2023-07-16T04:07:06;5.07;;;2.70;;
817;SDS011;391;51.052;6.954;2023-07-16T04:09:09;3.80;;;2.17;;
817;SDS011;391;51.052;6.954;2023-07-16T04:11:12;5.40;;;2.13;;
817;SDS011;391;51.052;6.954;2023-07-16T04:13:16;3.60;;;2.43;;
817;SDS011;391;51.052;6.954;2023-07-16T04:15:21;2.87;;;1.67;;
817;SDS011;391;51.052;6.954;2023-07-16T04:17:28;2.93;;;2.20;;
817;SDS011;391;51.052;6.954;2023-07-16T04:19:32;4.13;;;2.60;;
817;SDS011;391;51.052;6.954;2023-07-16T04:21:36;5.40;;;4.33;;
817;SDS011;391;51.052;6.954;2023-07-16T04:23:39;2.57;;;2.20;;
817;SDS011;391;51.052;6.954;2023-07-16T04:25:42;3.83;;;2.00;;
817;SDS011;391;51.052;6.954;2023-07-16T04:27:46;4.07;;;2.13;;
817;SDS011;391;51.052;6.954;2023-07-16T04:29:49;5.40;;;2.47;;
817;SDS011;391;51.052;6.954;2023-07-16T04:31:53;5.40;;;2.30;;
817;SDS011;391;51.052;6.954;2023-07-16T04:33:56;5.73;;;4.10;;
817;SDS011;391;51.052;6.954;2023-07-16T04:36:00;4.60;;;1.97;;
817;SDS011;391;51.052;6.954;2023-07-16T04:38:03;5.33;;;2.17;;
817;SDS011;391;51.052;6.954;2023-07-16T04:40:07;3.63;;;2.37;;
817;SDS011;391;51.052;6.954;2023-07-16T04:42:11;5.60;;;2.37;;
817;SDS011;391;51.052;6.954;2023-07-16T04:44:14;2.70;;;2.17;;
817;SDS011;391;51.052;6.954;2023-07-16T04:46:18;4.30;;;2.63;;
817;SDS011;391;51.052;6.954;2023-07-16T04:48:23;3.27;;;2.00;;
817;SDS011;391;51.052;6.954;2023-07-16T04:50:26;4.23;;;2.63;;
817;SDS011;391;51.052;6.954;2023-07-16T04:52:29;3.53;;;2.17;;
817;SDS011;391;51.052;6.954;2023-07-16T04:54:34;4.30;;;2.97;;
817;SDS011;391;51.052;6.954;2023-07-16T04:56:38;3.83;;;2.47;;
817;SDS011;391;51.052;6.954;2023-07-16T04:58:42;5.83;;;4.50;;
817;SDS011;391;51.052;6.954;2023-07-16T05:00:46;7.10;;;3.20;;
817;SDS011;391;51.052;6.954;2023-07-16T05:02:49;4.80;;;2.50;;
817;SDS011;391;51.052;6.954;2023-07-16T05:04:54;3.70;;;2.43;;
817;SDS011;391;51.052;6.954;2023-07-16T05:06:57;2.73;;;2.10;;
817;SDS011;391;51.052;6.954;2023-07-16T05:09:01;3.07;;;2.50;;
817;SDS011;391;51.052;6.954;2023-07-16T05:11:04;3.47;;;2.67;;
817;SDS011;391;51.052;6.954;2023-07-16T05:13:07;3.07;;;2.13;;
817;SDS011;391;51.052;6.954;2023-07-16T05:15:10;4.10;;;2.43;;
817;SDS011;391;51.052;6.954;2023-07-16T05:17:14;7.47;;;2.70;;
817;SDS011;391;51.052;6.954;2023-07-16T05:19:17;4.90;;;3.57;;
817;SDS011;391;51.052;6.954;2023-07-16T05:21:22;4.07;;;2.70;;
817;SDS011;391;51.052;6.954;2023-07-16T05:23:26;4.43;;;2.50;;
817;SDS011;391;51.052;6.954;2023-07-16T05:25:30;3.33;;;2.47;;
817;SDS011;391;51.052;6.954;2023-07-16T05:27:33;5.20;;;2.23;;
817;SDS011;391;51.052;6.954;2023-07-16T05:29:37;6.13;;;2.80;;
817;SDS011;391;51.052;6.954;2023-07-16T05:31:42;3.27;;;2.40;;
817;SDS011;391;51.052;6.954;2023-07-16T05:33:46;2.90;;;2.13;;
817;SDS011;391;51.052;6.954;2023-07-16T05:35:49;5.70;;;3.00;;
817;SDS011;391;51.052;6.954;2023-07-16T05:37:54;4.90;;;3.10;;
817;SDS011;391;51.052;6.954;2023-07-16T05:39:57;8.27;;;3.20;;
817;SDS011;391;51.052;6.954;2023-07-16T05:42:01;7.80;;;3.60;;
817;SDS011;391;51.052;6.954;2023-07-16T05:44:04;4.70;;;2.63;;
817;SDS011;391;51.052;6.954;2023-07-16T05:46:08;4.03;;;2.63;;
817;SDS011;391;51.052;6.954;2023-07-16T05:48:11;5.83;;;3.40;;
817;SDS011;391;51.052;6.954;2023-07-16T05:50:15;4.90;;;2.90;;
817;SDS011;391;51.052;6.954;2023-07-16T05:52:19;3.43;;;3.10;;
817;SDS011;391;51.052;6.954;2023-07-16T05:54:24;7.40;;;3.90;;
817;SDS011;391;51.052;6.954;2023-07-16T05:56:27;7.20;;;3.20;;
817;SDS011;391;51.052;6.954;2023-07-16T05:58:30;6.10;;;3.20;;
817;SDS011;391;51.052;6.954;2023-07-16T06:00:34;6.87;;;6.20;;
817;SDS011;391;51.052;6.954;2023-07-16T06:02:37;7.90;;;6.90;;
817;SDS011;391;51.052;6.954;2023-07-16T06:04:41;5.30;;;2.97;;
817;SDS011;391;51.052;6.954;2023-07-16T06:06:44;8.17;;;4.20;;
817;SDS011;391;51.052;6.954;2023-07-16T06:08:47;4.43;;;2.80;;
817;SDS011;391;51.052;6.954;2023-07-16T06:10:52;4.50;;;3.50;;
817;SDS011;391;51.052;6.954;2023-07-16T06:12:56;8.63;;;3.60;;
817;SDS011;391;51.052;6.954;2023-07-16T06:14:59;4.20;;;3.17;;
817;SDS011;391;51.052;6.954;2023-07-16T06:17:03;7.00;;;3.50;;
817;SDS011;391;51.052;6.954;2023-07-16T06:19:06;5.00;;;3.80;;
817;SDS011;391;51.052;6.954;2023-07-16T06:21:10;4.13;;;3.30;;
817;SDS011;391;51.052;6.954;2023-07-16T06:23:13;5.97;;;4.17;;
817;SDS011;391;51.052;6.954;2023-07-16T06:25:18;5.67;;;4.17;;
817;SDS011;391;51.052;6.954;2023-07-16T06:27:23;7.47;;;4.83;;
817;SDS011;391;51.052;6.954;2023-07-16T06:29:26;5.87;;;3.90;;
817;SDS011;391;51.052;6.954;2023-07-16T06:31:30;4.97;;;3.70;;
817;SDS011;391;51.052;6.954;2023-07-16T06:33:33;6.40;;;4.33;;
817;SDS011;391;51.052;6.954;2023-07-16T06:35:36;5.97;;;4.60;;
817;SDS011;391;51.052;6.954;2023-07-16T06:37:40;5.33;;;4.70;;
817;SDS011;391;51.052;6.954;2023-07-16T06:39:43;9.37;;;5.83;;
817;SDS011;391;51.052;6.954;2023-07-16T06:41:47;7.97;;;4.90;;
817;SDS011;391;51.052;6.954;2023-07-16T06:43:51;6.30;;;4.00;;
817;SDS011;391;51.052;6.954;2023-07-16T06:45:54;6.50;;;3.97;;
817;SDS011;391;51.052;6.954;2023-07-16T06:47:58;8.90;;;6.63;;
817;SDS011;391;51.052;6.954;2023-07-16T06:50:01;5.97;;;4.40;;
817;SDS011;391;51.052;6.954;2023-07-16T06:52:05;6.90;;;4.40;;
817;SDS011;391;51.052;6.954;2023-07-16T06:54:09;7.03;;;4.33;;
817;SDS011;391;51.052;6.954;2023-07-16T06:56:13;4.70;;;4.03;;
817;SDS011;391;51.052;6.954;2023-07-16T06:58:17;6.80;;;4.47;;
817;SDS011;391;51.052;6.954;2023-07-16T07:00:21;6.67;;;4.60;;
817;SDS011;391;51.052;6.954;2023-07-16T07:02:25;8.23;;;4.90;;
817;SDS011;391;51.052;6.954;2023-07-16T07:04:28;8.00;;;4.47;;
817;SDS011;391;51.052;6.954;2023-07-16T07:06:32;4.40;;;4.00;;
817;SDS011;391;51.052;6.954;2023-07-16T07:08:35;8.07;;;5.07;;
817;SDS011;391;51.052;6.954;2023-07-16T07:10:39;6.47;;;5.40;;
817;SDS011;391;51.052;6.954;2023-07-16T07:12:42;8.50;;;5.00;;
817;SDS011;391;51.052;6.954;2023-07-16T07:14:46;6.00;;;4.47;;
817;SDS011;391;51.052;6.954;2023-07-16T07:16:51;5.90;;;5.30;;
817;SDS011;391;51.052;6.954;2023-07-16T07:18:56;7.30;;;4.80;;
817;SDS011;391;51.052;6.954;2023-07-16T07:20:59;6.97;;;5.43;;
817;SDS011;391;51.052;6.954;2023-07-16T07:23:03;7.20;;;4.77;;
817;SDS011;391;51.052;6.954;2023-07-16T07:25:07;6.90;;;4.53;;
817;SDS011;391;51.052;6.954;2023-07-16T07:27:11;6.53;;;4.23;;
817;SDS011;391;51.052;6.954;2023-07-16T07:29:14;5.10;;;4.63;;
817;SDS011;391;51.052;6.954;2023-07-16T07:31:18;5.40;;;5.00;;
817;SDS011;391;51.052;6.954;2023-07-16T07:33:23;6.53;;;5.10;;
817;SDS011;391;51.052;6.954;2023-07-16T07:35:25;5.00;;;4.50;;
817;SDS011;391;51.052;6.954;2023-07-16T07:37:29;6.73;;;5.83;;
817;SDS011;391;51.052;6.954;2023-07-16T07:39:32;9.67;;;4.70;;
817;SDS011;391;51.052;6.954;2023-07-16T07:41:35;7.03;;;4.80;;
817;SDS011;391;51.052;6.954;2023-07-16T07:43:39;4.77;;;4.37;;
817;SDS011;391;51.052;6.954;2023-07-16T07:45:43;6.90;;;5.17;;
817;SDS011;391;51.052;6.954;2023-07-16T07:47:46;6.13;;;5.53;;
817;SDS011;391;51.052;6.954;2023-07-16T07:49:52;4.67;;;4.20;;
817;SDS011;391;51.052;6.954;2023-07-16T07:51:55;5.27;;;4.70;;
817;SDS011;391;51.052;6.954;2023-07-16T07:53:59;8.20;;;4.43;;
817;SDS011;391;51.052;6.954;2023-07-16T07:56:03;5.10;;;4.60;;
817;SDS011;391;51.052;6.954;2023-07-16T07:58:07;5.50;;;4.27;;
817;SDS011;391;51.052;6.954;2023-07-16T08:00:11;5.77;;;4.10;;
817;SDS011;391;51.052;6.954;2023-07-16T08:02:16;6.03;;;3.93;;
817;SDS011;391;51.052;6.954;2023-07-16T08:04:20;6.20;;;4.50;;
817;SDS011;391;51.052;6.954;2023-07-16T08:06:25;9.93;;;5.20;;
817;SDS011;391;51.052;6.954;2023-07-16T08:08:29;5.10;;;4.60;;
817;SDS011;391;51.052;6.954;2023-07-16T08:10:33;4.93;;;4.43;;
817;SDS011;391;51.052;6.954;2023-07-16T08:12:36;9.13;;;6.17;;
817;SDS011;391;51.052;6.954;2023-07-16T08:14:40;6.67;;;4.50;;
817;SDS011;391;51.052;6.954;2023-07-16T08:16:44;4.57;;;4.17;;
817;SDS011;391;51.052;6.954;2023-07-16T08:18:47;5.73;;;5.07;;
817;SDS011;391;51.052;6.954;2023-07-16T08:20:51;5.13;;;4.23;;
817;SDS011;391;51.052;6.954;2023-07-16T08:22:56;9.03;;;4.90;;
817;SDS011;391;51.052;6.954;2023-07-16T08:24:59;5.03;;;4.53;;
817;SDS011;391;51.052;6.954;2023-07-16T08:27:02;6.43;;;4.77;;
817;SDS011;391;51.052;6.954;2023-07-16T08:29:06;6.70;;;5.10;;
817;SDS011;391;51.052;6.954;2023-07-16T08:31:09;6.10;;;5.43;;
817;SDS011;391;51.052;6.954;2023-07-16T08:33:13;4.33;;;3.93;;
817;SDS011;391;51.052;6.954;2023-07-16T08:35:17;7.63;;;5.30;;
817;SDS011;391;51.052;6.954;2023-07-16T08:37:21;6.30;;;4.20;;
817;SDS011;391;51.052;6.954;2023-07-16T08:39:26;7.27;;;5.93;;
817;SDS011;391;51.052;6.954;2023-07-16T08:41:29;8.10;;;4.87;;
817;SDS011;391;51.052;6.954;2023-07-16T08:43:33;5.97;;;4.40;;
817;SDS011;391;51.052;6.954;2023-07-16T08:45:38;5.83;;;4.13;;
817;SDS011;391;51.052;6.954;2023-07-16T08:47:44;5.10;;;3.63;;
817;SDS011;391;51.052;6.954;2023-07-16T08:49:50;6.53;;;4.57;;
817;SDS011;391;51.052;6.954;2023-07-16T08:51:57;5.80;;;4.87;;
817;SDS011;391;51.052;6.954;2023-07-16T08:54:03;4.53;;;4.13;;
817;SDS011;391;51.052;6.954;2023-07-16T08:56:08;6.27;;;4.83;;
817;SDS011;391;51.052;6.954;2023-07-16T08:58:12;4.40;;;3.77;;
817;SDS011;391;51.052;6.954;2023-07-16T09:00:17;6.77;;;4.90;;
817;SDS011;391;51.052;6.954;2023-07-16T09:02:21;6.97;;;5.47;;
817;SDS011;391;51.052;6.954;2023-07-16T09:04:26;6.10;;;4.70;;
817;SDS011;391;51.052;6.954;2023-07-16T09:06:31;5.23;;;4.73;;
817;SDS011;391;51.052;6.954;2023-07-16T09:08:35;4.33;;;3.83;;
817;SDS011;391;51.052;6.954;2023-07-16T09:10:39;5.77;;;4.67;;
817;SDS011;391;51.052;6.954;2023-07-16T09:12:45;4.87;;;4.40;;
817;SDS011;391;51.052;6.954;2023-07-16T09:14:49;6.50;;;4.90;;
817;SDS011;391;51.052;6.954;2023-07-16T09:16:52;7.53;;;3.80;;
817;SDS011;391;51.052;6.954;2023-07-16T09:18:56;7.50;;;5.00;;
817;SDS011;391;51.052;6.954;2023-07-16T09:21:08;7.60;;;4.90;;
817;SDS011;391;51.052;6.954;2023-07-16T09:23:12;5.23;;;4.73;;
817;SDS011;391;51.052;6.954;2023-07-16T09:25:14;5.93;;;4.17;;
817;SDS011;391;51.052;6.954;2023-07-16T09:27:19;4.90;;;4.37;;
817;SDS011;391;51.052;6.954;2023-07-16T09:29:25;4.87;;;3.97;;
817;SDS011;391;51.052;6.954;2023-07-16T09:31:28;4.77;;;4.03;;
817;SDS011;391;51.052;6.954;2023-07-16T09:33:32;5.07;;;4.60;;
817;SDS011;391;51.052;6.954;2023-07-16T09:35:36;4.23;;;3.87;;
817;SDS011;391;51.052;6.954;2023-07-16T09:37:39;6.13;;;4.20;;
817;SDS011;391;51.052;6.954;2023-07-16T09:39:43;6.00;;;4.13;;
817;SDS011;391;51.052;6.954;2023-07-16T09:41:49;4.37;;;3.90;;
817;SDS011;391;51.052;6.954;2023-07-16T09:43:53;4.40;;;4.10;;
817;SDS011;391;51.052;6.954;2023-07-16T09:45:58;4.70;;;2.77;;
817;SDS011;391;51.052;6.954;2023-07-16T09:48:02;5.33;;;4.10;;
817;SDS011;391;51.052;6.954;2023-07-16T09:50:06;4.10;;;3.23;;
817;SDS011;391;51.052;6.954;2023-07-16T09:52:09;6.03;;;4.23;;
817;SDS011;391;51.052;6.954;2023-07-16T09:54:13;6.40;;;4.20;;
817;SDS011;391;51.052;6.954;2023-07-16T09:56:17;6.00;;;4.13;;
817;SDS011;391;51.052;6.954;2023-07-16T09:58:23;3.93;;;3.63;;
817;SDS011;391;51.052;6.954;2023-07-16T10:00:28;5.37;;;3.37;;
817;SDS011;391;51.052;6.954;2023-07-16T10:02:34;3.57;;;3.00;;
817;SDS011;391;51.052;6.954;2023-07-16T10:04:38;6.43;;;3.40;;
817;SDS011;391;51.052;6.954;2023-07-16T10:06:49;4.17;;;3.10;;
817;SDS011;391;51.052;6.954;2023-07-16T10:08:57;3.40;;;2.97;;
817;SDS011;391;51.052;6.954;2023-07-16T10:11:00;6.00;;;3.70;;
817;SDS011;391;51.052;6.954;2023-07-16T10:13:03;5.43;;;2.83;;
817;SDS011;391;51.052;6.954;2023-07-16T10:15:07;5.10;;;3.20;;
817;SDS011;391;51.052;6.954;2023-07-16T10:17:12;3.73;;;3.17;;
817;SDS011;391;51.052;6.954;2023-07-16T10:19:23;4.80;;;3.50;;
817;SDS011;391;51.052;6.954;2023-07-16T10:21:27;5.33;;;3.13;;
817;SDS011;391;51.052;6.954;2023-07-16T10:23:36;6.67;;;3.90;;
817;SDS011;391;51.052;6.954;2023-07-16T10:25:57;5.17;;;3.10;;
817;SDS011;391;51.052;6.954;2023-07-16T10:28:01;4.23;;;3.17;;
817;SDS011;391;51.052;6.954;2023-07-16T10:30:05;3.60;;;3.30;;
817;SDS011;391;51.052;6.954;2023-07-16T10:32:09;5.30;;;2.77;;
817;SDS011;391;51.052;6.954;2023-07-16T10:34:15;3.47;;;3.17;;
817;SDS011;391;51.052;6.954;2023-07-16T10:36:20;6.53;;;4.03;;
817;SDS011;391;51.052;6.954;2023-07-16T10:38:23;3.20;;;2.67;;
817;SDS011;391;51.052;6.954;2023-07-16T10:40:27;7.00;;;3.07;;
817;SDS011;391;51.052;6.954;2023-07-16T10:42:31;3.57;;;3.27;;
817;SDS011;391;51.052;6.954;2023-07-16T10:44:35;3.93;;;3.53;;
817;SDS011;391;51.052;6.954;2023-07-16T10:46:37;3.70;;;3.00;;
817;SDS011;391;51.052;6.954;2023-07-16T10:48:45;7.00;;;3.60;;
817;SDS011;391;51.052;6.954;2023-07-16T10:50:52;3.10;;;2.70;;
817;SDS011;391;51.052;6.954;2023-07-16T10:52:58;3.60;;;3.30;;
817;SDS011;391;51.052;6.954;2023-07-16T10:55:01;4.00;;;3.20;;
817;SDS011;391;51.052;6.954;2023-07-16T10:57:05;5.80;;;3.33;;
817;SDS011;391;51.052;6.954;2023-07-16T10:59:09;3.80;;;3.40;;
817;SDS011;391;51.052;6.954;2023-07-16T11:01:14;4.60;;;3.13;;
817;SDS011;391;51.052;6.954;2023-07-16T11:03:18;4.73;;;3.83;;
817;SDS011;391;51.052;6.954;2023-07-16T11:05:21;3.83;;;3.20;;
817;SDS011;391;51.052;6.954;2023-07-16T11:07:26;4.30;;;2.70;;
817;SDS011;391;51.052;6.954;2023-07-16T11:09:30;4.37;;;3.53;;
817;SDS011;391;51.052;6.954;2023-07-16T11:11:35;5.27;;;3.33;;
817;SDS011;391;51.052;6.954;2023-07-16T11:13:38;3.43;;;2.77;;
817;SDS011;391;51.052;6.954;2023-07-16T11:15:41;3.93;;;3.40;;
817;SDS011;391;51.052;6.954;2023-07-16T11:17:48;4.63;;;3.53;;
817;SDS011;391;51.052;6.954;2023-07-16T11:19:52;4.07;;;3.67;;
817;SDS011;391;51.052;6.954;2023-07-16T11:21:57;3.77;;;3.10;;
817;SDS011;391;51.052;6.954;2023-07-16T11:24:07;3.00;;;2.70;;
817;SDS011;391;51.052;6.954;2023-07-16T11:26:14;4.77;;;3.20;;
817;SDS011;391;51.052;6.954;2023-07-16T11:28:18;3.67;;;3.37;;
817;SDS011;391;51.052;6.954;2023-07-16T11:30:22;4.53;;;3.13;;
817;SDS011;391;51.052;6.954;2023-07-16T11:32:27;4.57;;;3.20;;
817;SDS011;391;51.052;6.954;2023-07-16T11:34:33;3.50;;;3.20;;
817;SDS011;391;51.052;6.954;2023-07-16T11:36:36;4.10;;;3.27;;
817;SDS011;391;51.052;6.954;2023-07-16T11:38:40;4.50;;;3.43;;
817;SDS011;391;51.052;6.954;2023-07-16T11:40:45;4.60;;;3.90;;
817;SDS011;391;51.052;6.954;2023-07-16T11:42:51;7.47;;;3.70;;
817;SDS011;391;51.052;6.954;2023-07-16T11:44:55;7.43;;;3.47;;
817;SDS011;391;51.052;6.954;2023-07-16T11:46:59;6.53;;;3.40;;
817;SDS011;391;51.052;6.954;2023-07-16T11:49:02;4.00;;;3.30;;
817;SDS011;391;51.052;6.954;2023-07-16T11:51:06;8.43;;;3.10;;
817;SDS011;391;51.052;6.954;2023-07-16T11:53:09;3.43;;;3.13;;
817;SDS011;391;51.052;6.954;2023-07-16T11:55:12;4.23;;;2.87;;
817;SDS011;391;51.052;6.954;2023-07-16T11:57:16;4.83;;;3.27;;
817;SDS011;391;51.052;6.954;2023-07-16T11:59:21;6.13;;;3.43;;
817;SDS011;391;51.052;6.954;2023-07-16T12:01:24;3.43;;;2.90;;
817;SDS011;391;51.052;6.954;2023-07-16T12:03:28;4.90;;;3.20;;
817;SDS011;391;51.052;6.954;2023-07-16T12:05:31;4.50;;;3.50;;
817;SDS011;391;51.052;6.954;2023-07-16T12:07:52;4.53;;;3.47;;
817;SDS011;391;51.052;6.954;2023-07-16T12:09:56;4.57;;;3.10;;
817;SDS011;391;51.052;6.954;2023-07-16T12:11:59;6.20;;;4.50;;
817;SDS011;391;51.052;6.954;2023-07-16T12:14:02;4.67;;;3.37;;
817;SDS011;391;51.052;6.954;2023-07-16T12:16:07;3.70;;;3.20;;
817;SDS011;391;51.052;6.954;2023-07-16T12:18:11;3.57;;;3.27;;
817;SDS011;391;51.052;6.954;2023-07-16T12:20:14;3.50;;;2.80;;
817;SDS011;391;51.052;6.954;2023-07-16T12:22:18;3.23;;;2.93;;
817;SDS011;391;51.052;6.954;2023-07-16T12:24:22;4.90;;;2.90;;
817;SDS011;391;51.052;6.954;2023-07-16T12:26:26;5.47;;;3.90;;
817;SDS011;391;51.052;6.954;2023-07-16T12:28:30;5.40;;;3.23;;
817;SDS011;391;51.052;6.954;2023-07-16T12:30:33;4.73;;;3.63;;
817;SDS011;391;51.052;6.954;2023-07-16T12:32:38;3.30;;;3.00;;
817;SDS011;391;51.052;6.954;2023-07-16T12:34:42;3.50;;;3.20;;
817;SDS011;391;51.052;6.954;2023-07-16T12:36:46;5.23;;;3.10;;
817;SDS011;391;51.052;6.954;2023-07-16T12:38:50;3.50;;;3.20;;
817;SDS011;391;51.052;6.954;2023-07-16T12:40:52;3.37;;;3.07;;
817;SDS011;391;51.052;6.954;2023-07-16T12:42:55;3.83;;;3.30;;
817;SDS011;391;51.052;6.954;2023-07-16T12:44:59;5.63;;;3.50;;
817;SDS011;391;51.052;6.954;2023-07-16T12:47:02;3.30;;;3.00;;
817;SDS011;391;51.052;6.954;2023-07-16T12:49:08;6.20;;;3.70;;
817;SDS011;391;51.052;6.954;2023-07-16T12:51:12;4.03;;;3.63;;
817;SDS011;391;51.052;6.954;2023-07-16T12:53:15;3.90;;;2.80;;
817;SDS011;391;51.052;6.954;2023-07-16T12:55:19;3.87;;;3.30;;
817;SDS011;391;51.052;6.954;2023-07-16T12:57:22;5.87;;;3.57;;
817;SDS011;391;51.052;6.954;2023-07-16T12:59:26;3.70;;;3.10;;
817;SDS011;391;51.052;6.954;2023-07-16T13:01:29;5.23;;;3.63;;
817;SDS011;391;51.052;6.954;2023-07-16T13:03:33;4.57;;;3.40;;
817;SDS011;391;51.052;6.954;2023-07-16T13:05:38;4.70;;;3.53;;
817;SDS011;391;51.052;6.954;2023-07-16T13:07:40;4.00;;;3.23;;
817;SDS011;391;51.052;6.954;2023-07-16T13:09:44;6.40;;;3.57;;
817;SDS011;391;51.052;6.954;2023-07-16T13:11:47;4.80;;;3.87;;
817;SDS011;391;51.052;6.954;2023-07-16T13:13:51;5.83;;;4.10;;
817;SDS011;391;51.052;6.954;2023-07-16T13:15:53;6.90;;;3.97;;
817;SDS011;391;51.052;6.954;2023-07-16T13:17:57;4.60;;;4.00;;